Flinterborg — PHPH — position and weather

sailwx.info

Track history (hours):
 
Tides and Currents Weather Stations Pressure Air Temp Water Temp Dewpoint Dewpoint Depression Visibility Wind Speed Wind Dir Waves Ship Positions

Flinterborg

Last reported at 2015-Aug-21 20:31 UTC. Time now 2015-Aug-28 09:36 UTC.
Position N 58°27' E 018°56'.

Length 111 m; draft 6.3 m.

Type: Ship. MMSI: 245433000.

Date/timePositionNaut miles runAvg speedWind from/ knotsBaromVisibWave heightAir tempDewpointWater temp
2015-Aug-21 20:31N 58°27' E 018°56'7011.8
2015-Aug-21 14:33N 57°27' E 017°49'1211.8
2015-Aug-21 13:34N 57°16' E 017°40'1211.6
2015-Aug-21 12:34N 57°05' E 017°32'1211.4
2015-Aug-21 11:33N 56°55' E 017°24'1211.6
2015-Aug-21 10:33N 56°44' E 017°16'1111.5
2015-Aug-21 09:34N 56°33' E 017°09'1211.5
2015-Aug-21 08:34N 56°23' E 017°00'5510.8
2015-Aug-21 03:29N 55°46' E 015°49'1111.2
2015-Aug-21 02:33N 55°40' E 015°32'1111.5
2015-Aug-21 01:33N 55°35' E 015°15'1111.4
2015-Aug-21 00:34N 55°29' E 014°57'1211.4
2015-Aug-20 23:33N 55°24' E 014°40'1110.8
2015-Aug-20 22:34N 55°16' E 014°27'1110.8
2015-Aug-20 21:34N 55°11' E 014°09'1211.4
2015-Aug-20 20:33N 55°12' E 013°49'1111.0
2015-Aug-20 19:34N 55°12' E 013°30'1110.8
2015-Aug-20 18:33N 55°13' E 013°11'1110.8
2015-Aug-20 17:34N 55°15' E 012°53'9 9.4
2015-Aug-20 16:33N 55°20' E 012°39'1111.1
2015-Aug-20 15:33N 55°31' E 012°42'1010.1
2015-Aug-20 14:33N 55°41' E 012°41'1010.4
2015-Aug-20 13:33N 55°51' E 012°40'1010.4
2015-Aug-20 12:34N 56°02' E 012°38'10 9.5
2015-Aug-20 11:33N 56°09' E 012°26'3710.5
2015-Aug-20 08:05N 56°40' E 011°54'711.1
2015-Aug-20 07:29N 56°47' E 011°51'3210.8
2015-Aug-20 04:31N 57°17' E 011°31'1110.2
2015-Aug-20 03:28N 57°27' E 011°25'9 9.6
2015-Aug-20 02:33N 57°33' E 011°13'1010.0
2015-Aug-20 01:31N 57°40' E 010°59'1010.0
2015-Aug-20 00:31N 57°47' E 010°45'1211.7
2015-Aug-19 23:30N 57°47' E 010°23'27311.3
2015-Aug-18 23:22N 54°14' E 005°16'1212.0
2015-Aug-18 22:21N 54°04' E 005°06'1011.9
2015-Aug-18 21:28N 53°54' E 005°01'2412.3
2015-Aug-18 19:33N 53°32' E 004°46'3212.9
2015-Aug-18 17:04N 53°03' E 004°23'612.5
2015-Aug-18 16:33N 52°57' E 004°18'1212.0
2015-Aug-18 15:33N 52°47' E 004°07'10610.5
2015-Aug-18 05:29N 51°28' E 002°11'1212.4
2015-Aug-18 04:33N 51°20' E 001°59'512.8
2015-Aug-18 04:11N 51°16' E 001°54'113.0
2015-Aug-18 04:08N 51°16' E 001°53'813.3
2015-Aug-18 03:33N 51°10' E 001°45'1414.0
2015-Aug-18 02:33N 50°59' E 001°31'12611.5
2015-Aug-17 15:33N 50°03' W 001°28'8 8.0
2015-Aug-17 14:33N 50°01' W 001°40'19 9.6
2015-Aug-17 12:34N 49°56' W 002°08'  
2015-Aug-12 11:25N 43°40' W 004°53'1112.7
2015-Aug-12 10:33N 43°42' W 005°08'1312.7
2015-Aug-12 09:33N 43°43' W 005°25'1312.9
2015-Aug-12 08:33N 43°45' W 005°43'1412.8
2015-Aug-12 07:26N 43°46' W 006°03'  
Track history (hours):
 
Tides and Currents Weather Stations Pressure Air Temp Water Temp Dewpoint Dewpoint Depression Visibility Wind Speed Wind Dir Waves Ship Positions

Flinterborg

Last reported at 2015-Aug-21 20:31 UTC. Time now 2015-Aug-28 09:36 UTC.
Position N 58°27' E 018°56'.

Length 111 m; draft 6.3 m.

Type: Ship. MMSI: 245433000.

Date/timePositionNaut miles runAvg speedWind from/ knotsBaromVisibWave heightAir tempDewpointWater temp
2015-Aug-21 20:31N 58°27' E 018°56'7011.8
2015-Aug-21 14:33N 57°27' E 017°49'1211.8
2015-Aug-21 13:34N 57°16' E 017°40'1211.6
2015-Aug-21 12:34N 57°05' E 017°32'1211.4
2015-Aug-21 11:33N 56°55' E 017°24'1211.6
2015-Aug-21 10:33N 56°44' E 017°16'1111.5
2015-Aug-21 09:34N 56°33' E 017°09'1211.5
2015-Aug-21 08:34N 56°23' E 017°00'5510.8
2015-Aug-21 03:29N 55°46' E 015°49'1111.2
2015-Aug-21 02:33N 55°40' E 015°32'1111.5
2015-Aug-21 01:33N 55°35' E 015°15'1111.4
2015-Aug-21 00:34N 55°29' E 014°57'1211.4
2015-Aug-20 23:33N 55°24' E 014°40'1110.8
2015-Aug-20 22:34N 55°16' E 014°27'1110.8
2015-Aug-20 21:34N 55°11' E 014°09'1211.4
2015-Aug-20 20:33N 55°12' E 013°49'1111.0
2015-Aug-20 19:34N 55°12' E 013°30'1110.8
2015-Aug-20 18:33N 55°13' E 013°11'1110.8
2015-Aug-20 17:34N 55°15' E 012°53'9 9.4
2015-Aug-20 16:33N 55°20' E 012°39'1111.1
2015-Aug-20 15:33N 55°31' E 012°42'1010.1
2015-Aug-20 14:33N 55°41' E 012°41'1010.4
2015-Aug-20 13:33N 55°51' E 012°40'1010.4
2015-Aug-20 12:34N 56°02' E 012°38'10 9.5
2015-Aug-20 11:33N 56°09' E 012°26'3710.5
2015-Aug-20 08:05N 56°40' E 011°54'711.1
2015-Aug-20 07:29N 56°47' E 011°51'3210.8
2015-Aug-20 04:31N 57°17' E 011°31'1110.2
2015-Aug-20 03:28N 57°27' E 011°25'9 9.6
2015-Aug-20 02:33N 57°33' E 011°13'1010.0
2015-Aug-20 01:31N 57°40' E 010°59'1010.0
2015-Aug-20 00:31N 57°47' E 010°45'1211.7
2015-Aug-19 23:30N 57°47' E 010°23'27311.3
2015-Aug-18 23:22N 54°14' E 005°16'1212.0
2015-Aug-18 22:21N 54°04' E 005°06'1011.9
2015-Aug-18 21:28N 53°54' E 005°01'2412.3
2015-Aug-18 19:33N 53°32' E 004°46'3212.9
2015-Aug-18 17:04N 53°03' E 004°23'612.5
2015-Aug-18 16:33N 52°57' E 004°18'1212.0
2015-Aug-18 15:33N 52°47' E 004°07'10610.5
2015-Aug-18 05:29N 51°28' E 002°11'1212.4
2015-Aug-18 04:33N 51°20' E 001°59'512.8
2015-Aug-18 04:11N 51°16' E 001°54'113.0
2015-Aug-18 04:08N 51°16' E 001°53'813.3
2015-Aug-18 03:33N 51°10' E 001°45'1414.0
2015-Aug-18 02:33N 50°59' E 001°31'12611.5
2015-Aug-17 15:33N 50°03' W 001°28'8 8.0
2015-Aug-17 14:33N 50°01' W 001°40'19 9.6
2015-Aug-17 12:34N 49°56' W 002°08'  
2015-Aug-12 11:25N 43°40' W 004°53'1112.7
2015-Aug-12 10:33N 43°42' W 005°08'1312.7
2015-Aug-12 09:33N 43°43' W 005°25'1312.9
2015-Aug-12 08:33N 43°45' W 005°43'1412.8
2015-Aug-12 07:26N 43°46' W 006°03'  

Dump ship's entire track history